sensor_id;sensor_type;location;lat;lon;timestamp;P1;durP1;ratioP1;P2;durP2;ratioP2
20734;SDS011;10528;52.124;5.196;2024-03-17T00:00:24;9.75;;;4.10;;
20734;SDS011;10528;52.124;5.196;2024-03-17T00:02:50;10.13;;;3.83;;
20734;SDS011;10528;52.124;5.196;2024-03-17T00:05:16;9.55;;;4.03;;
20734;SDS011;10528;52.124;5.196;2024-03-17T00:07:43;10.50;;;4.57;;
20734;SDS011;10528;52.124;5.196;2024-03-17T00:10:10;7.63;;;3.50;;
20734;SDS011;10528;52.124;5.196;2024-03-17T00:12:36;12.35;;;4.20;;
20734;SDS011;10528;52.124;5.196;2024-03-17T00:15:04;9.07;;;3.90;;
20734;SDS011;10528;52.124;5.196;2024-03-17T00:17:32;9.85;;;4.00;;
20734;SDS011;10528;52.124;5.196;2024-03-17T00:19:59;9.23;;;4.55;;
20734;SDS011;10528;52.124;5.196;2024-03-17T00:22:37;12.30;;;4.18;;
20734;SDS011;10528;52.124;5.196;2024-03-17T00:25:05;12.88;;;4.75;;
20734;SDS011;10528;52.124;5.196;2024-03-17T00:27:33;8.93;;;4.07;;
20734;SDS011;10528;52.124;5.196;2024-03-17T00:30:05;7.45;;;3.78;;
20734;SDS011;10528;52.124;5.196;2024-03-17T00:32:38;8.90;;;4.40;;
20734;SDS011;10528;52.124;5.196;2024-03-17T00:35:06;9.45;;;4.55;;
20734;SDS011;10528;52.124;5.196;2024-03-17T00:37:34;11.70;;;4.18;;
20734;SDS011;10528;52.124;5.196;2024-03-17T00:40:02;9.98;;;4.05;;
20734;SDS011;10528;52.124;5.196;2024-03-17T00:42:29;12.15;;;4.45;;
20734;SDS011;10528;52.124;5.196;2024-03-17T00:44:55;8.23;;;3.85;;
20734;SDS011;10528;52.124;5.196;2024-03-17T00:47:22;11.93;;;4.15;;
20734;SDS011;10528;52.124;5.196;2024-03-17T00:49:48;8.73;;;4.10;;
20734;SDS011;10528;52.124;5.196;2024-03-17T00:52:16;10.10;;;4.00;;
20734;SDS011;10528;52.124;5.196;2024-03-17T00:54:42;8.25;;;3.92;;
20734;SDS011;10528;52.124;5.196;2024-03-17T00:57:12;9.20;;;4.07;;
20734;SDS011;10528;52.124;5.196;2024-03-17T00:59:38;9.75;;;3.75;;
20734;SDS011;10528;52.124;5.196;2024-03-17T01:02:04;9.02;;;3.92;;
20734;SDS011;10528;52.124;5.196;2024-03-17T01:04:30;12.23;;;4.53;;
20734;SDS011;10528;52.124;5.196;2024-03-17T01:06:59;7.35;;;4.32;;
20734;SDS011;10528;52.124;5.196;2024-03-17T01:09:25;8.35;;;3.85;;
20734;SDS011;10528;52.124;5.196;2024-03-17T01:11:51;9.45;;;4.53;;
20734;SDS011;10528;52.124;5.196;2024-03-17T01:14:17;8.55;;;4.05;;
20734;SDS011;10528;52.124;5.196;2024-03-17T01:16:43;11.48;;;4.38;;
20734;SDS011;10528;52.124;5.196;2024-03-17T01:19:09;9.02;;;4.43;;
20734;SDS011;10528;52.124;5.196;2024-03-17T01:21:35;9.43;;;4.82;;
20734;SDS011;10528;52.124;5.196;2024-03-17T01:24:01;10.18;;;4.07;;
20734;SDS011;10528;52.124;5.196;2024-03-17T01:26:27;8.07;;;4.40;;
20734;SDS011;10528;52.124;5.196;2024-03-17T01:28:53;8.90;;;4.45;;
20734;SDS011;10528;52.124;5.196;2024-03-17T01:31:19;13.23;;;5.32;;
20734;SDS011;10528;52.124;5.196;2024-03-17T01:33:45;11.85;;;5.00;;
20734;SDS011;10528;52.124;5.196;2024-03-17T01:36:12;13.63;;;5.60;;
20734;SDS011;10528;52.124;5.196;2024-03-17T01:38:38;10.40;;;5.03;;
20734;SDS011;10528;52.124;5.196;2024-03-17T01:41:04;13.07;;;5.53;;
20734;SDS011;10528;52.124;5.196;2024-03-17T01:43:30;12.55;;;5.55;;
20734;SDS011;10528;52.124;5.196;2024-03-17T01:45:56;9.60;;;5.25;;
20734;SDS011;10528;52.124;5.196;2024-03-17T01:48:24;10.82;;;5.80;;
20734;SDS011;10528;52.124;5.196;2024-03-17T01:50:52;12.95;;;6.05;;
20734;SDS011;10528;52.124;5.196;2024-03-17T01:53:21;8.98;;;5.47;;
20734;SDS011;10528;52.124;5.196;2024-03-17T01:55:50;9.60;;;5.22;;
20734;SDS011;10528;52.124;5.196;2024-03-17T01:58:22;9.80;;;5.88;;
20734;SDS011;10528;52.124;5.196;2024-03-17T02:00:51;13.13;;;5.90;;
20734;SDS011;10528;52.124;5.196;2024-03-17T02:03:17;12.32;;;5.50;;
20734;SDS011;10528;52.124;5.196;2024-03-17T02:05:43;10.60;;;5.43;;
20734;SDS011;10528;52.124;5.196;2024-03-17T02:08:10;11.35;;;5.53;;
20734;SDS011;10528;52.124;5.196;2024-03-17T02:10:37;13.80;;;5.90;;
20734;SDS011;10528;52.124;5.196;2024-03-17T02:13:03;14.93;;;5.70;;
20734;SDS011;10528;52.124;5.196;2024-03-17T02:15:31;9.73;;;5.32;;
20734;SDS011;10528;52.124;5.196;2024-03-17T02:17:57;8.45;;;5.07;;
20734;SDS011;10528;52.124;5.196;2024-03-17T02:20:24;8.30;;;5.35;;
20734;SDS011;10528;52.124;5.196;2024-03-17T02:23:10;11.18;;;5.70;;
20734;SDS011;10528;52.124;5.196;2024-03-17T02:25:37;12.48;;;7.00;;
20734;SDS011;10528;52.124;5.196;2024-03-17T02:28:03;11.52;;;6.20;;
20734;SDS011;10528;52.124;5.196;2024-03-17T02:30:32;9.63;;;6.57;;
20734;SDS011;10528;52.124;5.196;2024-03-17T02:32:59;8.43;;;5.68;;
20734;SDS011;10528;52.124;5.196;2024-03-17T02:35:24;13.15;;;5.82;;
20734;SDS011;10528;52.124;5.196;2024-03-17T02:37:51;16.23;;;5.93;;
20734;SDS011;10528;52.124;5.196;2024-03-17T02:40:17;11.88;;;5.85;;
20734;SDS011;10528;52.124;5.196;2024-03-17T02:42:44;9.32;;;5.30;;
20734;SDS011;10528;52.124;5.196;2024-03-17T02:45:13;10.27;;;5.65;;
20734;SDS011;10528;52.124;5.196;2024-03-17T02:47:40;11.65;;;5.60;;
20734;SDS011;10528;52.124;5.196;2024-03-17T02:50:07;9.65;;;5.60;;
20734;SDS011;10528;52.124;5.196;2024-03-17T02:52:34;11.43;;;6.38;;
20734;SDS011;10528;52.124;5.196;2024-03-17T02:55:00;11.52;;;6.47;;
20734;SDS011;10528;52.124;5.196;2024-03-17T02:57:26;11.32;;;6.05;;
20734;SDS011;10528;52.124;5.196;2024-03-17T02:59:57;10.23;;;5.93;;
20734;SDS011;10528;52.124;5.196;2024-03-17T03:02:24;11.90;;;6.72;;
20734;SDS011;10528;52.124;5.196;2024-03-17T03:04:50;11.93;;;7.13;;
20734;SDS011;10528;52.124;5.196;2024-03-17T03:07:16;12.73;;;6.40;;
20734;SDS011;10528;52.124;5.196;2024-03-17T03:09:43;10.60;;;6.45;;
20734;SDS011;10528;52.124;5.196;2024-03-17T03:12:09;12.68;;;6.55;;
20734;SDS011;10528;52.124;5.196;2024-03-17T03:14:35;12.02;;;5.95;;
20734;SDS011;10528;52.124;5.196;2024-03-17T03:17:02;12.48;;;6.43;;
20734;SDS011;10528;52.124;5.196;2024-03-17T03:19:27;9.13;;;6.35;;
20734;SDS011;10528;52.124;5.196;2024-03-17T03:21:55;13.23;;;6.82;;
20734;SDS011;10528;52.124;5.196;2024-03-17T03:24:21;12.00;;;6.63;;
20734;SDS011;10528;52.124;5.196;2024-03-17T03:26:47;7.88;;;5.82;;
20734;SDS011;10528;52.124;5.196;2024-03-17T03:29:13;9.45;;;6.70;;
20734;SDS011;10528;52.124;5.196;2024-03-17T03:31:40;11.07;;;6.90;;
20734;SDS011;10528;52.124;5.196;2024-03-17T03:34:06;10.77;;;6.97;;
20734;SDS011;10528;52.124;5.196;2024-03-17T03:36:34;11.73;;;7.07;;
20734;SDS011;10528;52.124;5.196;2024-03-17T03:39:01;11.70;;;6.55;;
20734;SDS011;10528;52.124;5.196;2024-03-17T03:41:31;13.60;;;7.70;;
20734;SDS011;10528;52.124;5.196;2024-03-17T03:43:58;12.55;;;7.10;;
20734;SDS011;10528;52.124;5.196;2024-03-17T03:46:24;9.68;;;6.82;;
20734;SDS011;10528;52.124;5.196;2024-03-17T03:48:51;10.00;;;6.95;;
20734;SDS011;10528;52.124;5.196;2024-03-17T03:51:17;13.32;;;7.82;;
20734;SDS011;10528;52.124;5.196;2024-03-17T03:53:43;10.45;;;6.72;;
20734;SDS011;10528;52.124;5.196;2024-03-17T03:56:10;11.50;;;7.72;;
20734;SDS011;10528;52.124;5.196;2024-03-17T03:58:36;10.88;;;7.45;;
20734;SDS011;10528;52.124;5.196;2024-03-17T04:01:05;14.27;;;7.07;;
20734;SDS011;10528;52.124;5.196;2024-03-17T04:03:36;11.45;;;6.95;;
20734;SDS011;10528;52.124;5.196;2024-03-17T04:06:03;11.25;;;7.25;;
20734;SDS011;10528;52.124;5.196;2024-03-17T04:08:36;9.60;;;7.00;;
20734;SDS011;10528;52.124;5.196;2024-03-17T04:11:05;10.52;;;7.13;;
20734;SDS011;10528;52.124;5.196;2024-03-17T04:13:32;13.25;;;6.80;;
20734;SDS011;10528;52.124;5.196;2024-03-17T04:15:59;10.40;;;7.18;;
20734;SDS011;10528;52.124;5.196;2024-03-17T04:18:29;13.23;;;7.38;;
20734;SDS011;10528;52.124;5.196;2024-03-17T04:20:55;10.57;;;7.28;;
20734;SDS011;10528;52.124;5.196;2024-03-17T04:23:26;10.95;;;6.93;;
20734;SDS011;10528;52.124;5.196;2024-03-17T04:25:52;15.80;;;7.68;;
20734;SDS011;10528;52.124;5.196;2024-03-17T04:28:18;11.57;;;6.85;;
20734;SDS011;10528;52.124;5.196;2024-03-17T04:30:44;11.57;;;7.72;;
20734;SDS011;10528;52.124;5.196;2024-03-17T04:33:14;10.85;;;6.60;;
20734;SDS011;10528;52.124;5.196;2024-03-17T04:35:42;11.02;;;6.95;;
20734;SDS011;10528;52.124;5.196;2024-03-17T04:38:08;13.60;;;7.05;;
20734;SDS011;10528;52.124;5.196;2024-03-17T04:40:35;10.85;;;7.07;;
20734;SDS011;10528;52.124;5.196;2024-03-17T04:43:06;11.57;;;6.55;;
20734;SDS011;10528;52.124;5.196;2024-03-17T04:45:34;8.10;;;6.22;;
20734;SDS011;10528;52.124;5.196;2024-03-17T04:48:00;11.05;;;7.10;;
20734;SDS011;10528;52.124;5.196;2024-03-17T04:50:26;10.48;;;7.10;;
20734;SDS011;10528;52.124;5.196;2024-03-17T04:52:57;10.27;;;6.95;;
20734;SDS011;10528;52.124;5.196;2024-03-17T04:55:26;10.20;;;6.63;;
20734;SDS011;10528;52.124;5.196;2024-03-17T04:57:52;13.60;;;7.40;;
20734;SDS011;10528;52.124;5.196;2024-03-17T05:00:18;11.57;;;7.47;;
20734;SDS011;10528;52.124;5.196;2024-03-17T05:02:45;11.32;;;7.75;;
20734;SDS011;10528;52.124;5.196;2024-03-17T05:05:11;13.50;;;7.13;;
20734;SDS011;10528;52.124;5.196;2024-03-17T05:07:37;11.02;;;7.40;;
20734;SDS011;10528;52.124;5.196;2024-03-17T05:10:03;9.77;;;7.05;;
20734;SDS011;10528;52.124;5.196;2024-03-17T05:12:31;11.10;;;7.25;;
20734;SDS011;10528;52.124;5.196;2024-03-17T05:14:57;10.32;;;7.40;;
20734;SDS011;10528;52.124;5.196;2024-03-17T05:17:23;9.80;;;7.50;;
20734;SDS011;10528;52.124;5.196;2024-03-17T05:19:49;10.25;;;7.05;;
20734;SDS011;10528;52.124;5.196;2024-03-17T05:22:15;11.07;;;6.88;;
20734;SDS011;10528;52.124;5.196;2024-03-17T05:24:41;11.75;;;7.55;;
20734;SDS011;10528;52.124;5.196;2024-03-17T05:27:07;9.85;;;6.68;;
20734;SDS011;10528;52.124;5.196;2024-03-17T05:29:34;10.02;;;7.47;;
20734;SDS011;10528;52.124;5.196;2024-03-17T05:32:03;10.32;;;7.35;;
20734;SDS011;10528;52.124;5.196;2024-03-17T05:34:30;11.57;;;7.57;;
20734;SDS011;10528;52.124;5.196;2024-03-17T05:36:57;10.48;;;7.40;;
20734;SDS011;10528;52.124;5.196;2024-03-17T05:39:23;10.80;;;6.88;;
20734;SDS011;10528;52.124;5.196;2024-03-17T05:41:49;9.75;;;6.82;;
20734;SDS011;10528;52.124;5.196;2024-03-17T05:44:16;9.43;;;6.90;;
20734;SDS011;10528;52.124;5.196;2024-03-17T05:46:43;9.73;;;6.50;;
20734;SDS011;10528;52.124;5.196;2024-03-17T05:49:09;9.88;;;6.78;;
20734;SDS011;10528;52.124;5.196;2024-03-17T05:51:35;10.10;;;7.15;;
20734;SDS011;10528;52.124;5.196;2024-03-17T05:54:02;12.18;;;7.03;;
20734;SDS011;10528;52.124;5.196;2024-03-17T05:56:28;8.93;;;7.03;;
20734;SDS011;10528;52.124;5.196;2024-03-17T05:58:54;10.20;;;7.43;;
20734;SDS011;10528;52.124;5.196;2024-03-17T06:01:20;9.65;;;6.93;;
20734;SDS011;10528;52.124;5.196;2024-03-17T06:03:47;10.32;;;7.20;;
20734;SDS011;10528;52.124;5.196;2024-03-17T06:06:13;10.93;;;7.38;;
20734;SDS011;10528;52.124;5.196;2024-03-17T06:08:39;9.38;;;7.20;;
20734;SDS011;10528;52.124;5.196;2024-03-17T06:11:05;9.00;;;6.90;;
20734;SDS011;10528;52.124;5.196;2024-03-17T06:13:31;10.25;;;7.50;;
20734;SDS011;10528;52.124;5.196;2024-03-17T06:15:58;10.55;;;7.65;;
20734;SDS011;10528;52.124;5.196;2024-03-17T06:18:26;10.43;;;7.53;;
20734;SDS011;10528;52.124;5.196;2024-03-17T06:20:53;13.60;;;8.20;;
20734;SDS011;10528;52.124;5.196;2024-03-17T06:23:23;10.07;;;7.13;;
20734;SDS011;10528;52.124;5.196;2024-03-17T06:25:49;13.50;;;7.47;;
20734;SDS011;10528;52.124;5.196;2024-03-17T06:28:20;8.95;;;6.88;;
20734;SDS011;10528;52.124;5.196;2024-03-17T06:30:54;10.27;;;7.13;;
20734;SDS011;10528;52.124;5.196;2024-03-17T06:33:25;10.23;;;7.32;;
20734;SDS011;10528;52.124;5.196;2024-03-17T06:35:53;10.48;;;7.35;;
20734;SDS011;10528;52.124;5.196;2024-03-17T06:38:20;10.68;;;7.93;;
20734;SDS011;10528;52.124;5.196;2024-03-17T06:40:49;10.98;;;7.43;;
20734;SDS011;10528;52.124;5.196;2024-03-17T06:43:17;12.02;;;7.43;;
20734;SDS011;10528;52.124;5.196;2024-03-17T06:45:43;10.82;;;7.93;;
20734;SDS011;10528;52.124;5.196;2024-03-17T06:48:19;10.05;;;7.80;;
20734;SDS011;10528;52.124;5.196;2024-03-17T06:50:45;11.77;;;8.45;;
20734;SDS011;10528;52.124;5.196;2024-03-17T06:53:11;11.65;;;8.27;;
20734;SDS011;10528;52.124;5.196;2024-03-17T06:55:38;9.75;;;7.30;;
20734;SDS011;10528;52.124;5.196;2024-03-17T06:58:04;11.40;;;7.32;;
20734;SDS011;10528;52.124;5.196;2024-03-17T07:00:30;10.60;;;7.97;;
20734;SDS011;10528;52.124;5.196;2024-03-17T07:02:56;11.32;;;8.20;;
20734;SDS011;10528;52.124;5.196;2024-03-17T07:05:22;11.85;;;7.82;;
20734;SDS011;10528;52.124;5.196;2024-03-17T07:07:48;11.90;;;8.48;;
20734;SDS011;10528;52.124;5.196;2024-03-17T07:10:14;12.15;;;8.63;;
20734;SDS011;10528;52.124;5.196;2024-03-17T07:12:41;11.48;;;8.25;;
20734;SDS011;10528;52.124;5.196;2024-03-17T07:15:07;11.00;;;8.40;;
20734;SDS011;10528;52.124;5.196;2024-03-17T07:17:34;12.25;;;8.60;;
20734;SDS011;10528;52.124;5.196;2024-03-17T07:20:01;13.50;;;8.85;;
20734;SDS011;10528;52.124;5.196;2024-03-17T07:22:28;13.95;;;9.63;;
20734;SDS011;10528;52.124;5.196;2024-03-17T07:24:55;10.98;;;8.55;;
20734;SDS011;10528;52.124;5.196;2024-03-17T07:27:26;12.82;;;8.43;;
20734;SDS011;10528;52.124;5.196;2024-03-17T07:29:56;10.70;;;8.93;;
20734;SDS011;10528;52.124;5.196;2024-03-17T07:32:22;12.50;;;9.27;;
20734;SDS011;10528;52.124;5.196;2024-03-17T07:34:48;10.63;;;8.70;;
20734;SDS011;10528;52.124;5.196;2024-03-17T07:37:15;10.10;;;8.10;;
20734;SDS011;10528;52.124;5.196;2024-03-17T07:39:42;10.43;;;8.57;;
20734;SDS011;10528;52.124;5.196;2024-03-17T07:42:08;11.52;;;8.30;;
20734;SDS011;10528;52.124;5.196;2024-03-17T07:44:34;13.18;;;8.73;;
20734;SDS011;10528;52.124;5.196;2024-03-17T07:47:00;10.40;;;8.15;;
20734;SDS011;10528;52.124;5.196;2024-03-17T07:49:29;13.70;;;9.18;;
20734;SDS011;10528;52.124;5.196;2024-03-17T07:51:56;13.90;;;9.27;;
20734;SDS011;10528;52.124;5.196;2024-03-17T07:54:26;12.98;;;9.25;;
20734;SDS011;10528;52.124;5.196;2024-03-17T07:56:52;11.70;;;8.45;;
20734;SDS011;10528;52.124;5.196;2024-03-17T07:59:19;14.02;;;9.02;;
20734;SDS011;10528;52.124;5.196;2024-03-17T08:01:45;11.90;;;8.85;;
20734;SDS011;10528;52.124;5.196;2024-03-17T08:04:11;12.43;;;9.10;;
20734;SDS011;10528;52.124;5.196;2024-03-17T08:06:38;10.85;;;8.63;;
20734;SDS011;10528;52.124;5.196;2024-03-17T08:09:06;11.25;;;8.35;;
20734;SDS011;10528;52.124;5.196;2024-03-17T08:11:36;11.05;;;8.75;;
20734;SDS011;10528;52.124;5.196;2024-03-17T08:14:02;10.82;;;8.45;;
20734;SDS011;10528;52.124;5.196;2024-03-17T08:16:28;11.30;;;8.32;;
20734;SDS011;10528;52.124;5.196;2024-03-17T08:18:55;11.95;;;8.70;;
20734;SDS011;10528;52.124;5.196;2024-03-17T08:21:22;11.95;;;8.85;;
20734;SDS011;10528;52.124;5.196;2024-03-17T08:23:49;12.00;;;8.88;;
20734;SDS011;10528;52.124;5.196;2024-03-17T08:26:16;11.75;;;8.25;;
20734;SDS011;10528;52.124;5.196;2024-03-17T08:28:41;10.18;;;8.18;;
20734;SDS011;10528;52.124;5.196;2024-03-17T08:31:07;10.27;;;8.00;;
20734;SDS011;10528;52.124;5.196;2024-03-17T08:33:34;10.70;;;8.40;;
20734;SDS011;10528;52.124;5.196;2024-03-17T08:36:00;12.93;;;8.80;;
20734;SDS011;10528;52.124;5.196;2024-03-17T08:38:35;13.38;;;9.07;;
20734;SDS011;10528;52.124;5.196;2024-03-17T08:41:03;14.75;;;9.25;;
20734;SDS011;10528;52.124;5.196;2024-03-17T08:43:34;12.48;;;9.20;;
20734;SDS011;10528;52.124;5.196;2024-03-17T08:48:32;11.43;;;9.18;;
20734;SDS011;10528;52.124;5.196;2024-03-17T08:51:01;10.23;;;8.35;;
20734;SDS011;10528;52.124;5.196;2024-03-17T08:53:29;11.23;;;9.20;;
20734;SDS011;10528;52.124;5.196;2024-03-17T08:55:56;13.20;;;9.20;;
20734;SDS011;10528;52.124;5.196;2024-03-17T08:58:24;13.27;;;8.98;;
20734;SDS011;10528;52.124;5.196;2024-03-17T09:00:51;11.65;;;8.85;;
20734;SDS011;10528;52.124;5.196;2024-03-17T09:03:17;10.90;;;8.70;;
20734;SDS011;10528;52.124;5.196;2024-03-17T09:05:45;12.68;;;9.00;;
20734;SDS011;10528;52.124;5.196;2024-03-17T09:08:16;14.73;;;9.57;;
20734;SDS011;10528;52.124;5.196;2024-03-17T09:10:47;10.73;;;8.77;;
20734;SDS011;10528;52.124;5.196;2024-03-17T09:13:17;12.93;;;8.40;;
20734;SDS011;10528;52.124;5.196;2024-03-17T09:15:52;12.75;;;8.43;;
20734;SDS011;10528;52.124;5.196;2024-03-17T09:18:23;11.88;;;8.98;;
20734;SDS011;10528;52.124;5.196;2024-03-17T09:21:05;11.35;;;9.00;;
20734;SDS011;10528;52.124;5.196;2024-03-17T09:23:33;13.35;;;8.63;;
20734;SDS011;10528;52.124;5.196;2024-03-17T09:26:07;12.25;;;8.98;;
20734;SDS011;10528;52.124;5.196;2024-03-17T09:28:35;10.57;;;8.18;;
20734;SDS011;10528;52.124;5.196;2024-03-17T09:31:01;11.57;;;9.00;;
20734;SDS011;10528;52.124;5.196;2024-03-17T09:33:31;13.90;;;9.18;;
20734;SDS011;10528;52.124;5.196;2024-03-17T09:36:06;14.98;;;8.18;;
20734;SDS011;10528;52.124;5.196;2024-03-17T09:38:34;12.95;;;8.65;;
20734;SDS011;10528;52.124;5.196;2024-03-17T09:41:01;13.55;;;8.95;;
20734;SDS011;10528;52.124;5.196;2024-03-17T09:43:28;12.30;;;8.68;;
20734;SDS011;10528;52.124;5.196;2024-03-17T09:45:57;10.95;;;8.40;;
20734;SDS011;10528;52.124;5.196;2024-03-17T09:48:27;12.50;;;9.00;;
20734;SDS011;10528;52.124;5.196;2024-03-17T09:50:57;11.77;;;8.77;;
20734;SDS011;10528;52.124;5.196;2024-03-17T09:53:29;11.57;;;8.40;;
20734;SDS011;10528;52.124;5.196;2024-03-17T09:56:03;14.65;;;8.43;;
20734;SDS011;10528;52.124;5.196;2024-03-17T09:58:36;11.77;;;7.93;;
20734;SDS011;10528;52.124;5.196;2024-03-17T10:01:03;11.25;;;8.43;;
20734;SDS011;10528;52.124;5.196;2024-03-17T10:03:43;11.05;;;7.90;;
20734;SDS011;10528;52.124;5.196;2024-03-17T10:06:23;11.52;;;8.25;;
20734;SDS011;10528;52.124;5.196;2024-03-17T10:08:57;10.15;;;8.15;;
20734;SDS011;10528;52.124;5.196;2024-03-17T10:11:35;11.45;;;7.97;;
20734;SDS011;10528;52.124;5.196;2024-03-17T10:14:02;10.10;;;8.20;;
20734;SDS011;10528;52.124;5.196;2024-03-17T10:16:33;10.63;;;8.30;;
20734;SDS011;10528;52.124;5.196;2024-03-17T10:19:12;10.88;;;7.95;;
20734;SDS011;10528;52.124;5.196;2024-03-17T10:21:45;11.40;;;8.48;;
20734;SDS011;10528;52.124;5.196;2024-03-17T10:24:14;12.93;;;7.97;;
20734;SDS011;10528;52.124;5.196;2024-03-17T10:26:49;13.30;;;7.80;;
20734;SDS011;10528;52.124;5.196;2024-03-17T10:29:20;10.63;;;7.88;;
20734;SDS011;10528;52.124;5.196;2024-03-17T10:31:59;8.80;;;7.28;;
20734;SDS011;10528;52.124;5.196;2024-03-17T10:34:29;13.35;;;8.18;;
20734;SDS011;10528;52.124;5.196;2024-03-17T10:39:39;10.18;;;7.30;;
20734;SDS011;10528;52.124;5.196;2024-03-17T10:42:08;11.80;;;7.50;;
20734;SDS011;10528;52.124;5.196;2024-03-17T10:44:40;12.95;;;7.68;;
20734;SDS011;10528;52.124;5.196;2024-03-17T10:47:19;9.98;;;6.85;;
20734;SDS011;10528;52.124;5.196;2024-03-17T10:49:49;8.25;;;6.40;;
20734;SDS011;10528;52.124;5.196;2024-03-17T10:52:17;8.70;;;6.85;;
20734;SDS011;10528;52.124;5.196;2024-03-17T10:54:48;13.63;;;7.18;;
20734;SDS011;10528;52.124;5.196;2024-03-17T10:57:31;14.13;;;8.23;;
20734;SDS011;10528;52.124;5.196;2024-03-17T11:00:11;8.68;;;6.90;;
20734;SDS011;10528;52.124;5.196;2024-03-17T11:02:42;8.13;;;6.88;;
20734;SDS011;10528;52.124;5.196;2024-03-17T11:05:15;9.75;;;6.80;;
20734;SDS011;10528;52.124;5.196;2024-03-17T11:07:51;8.60;;;6.25;;
20734;SDS011;10528;52.124;5.196;2024-03-17T11:10:28;11.18;;;6.60;;
20734;SDS011;10528;52.124;5.196;2024-03-17T11:13:00;8.75;;;6.25;;
20734;SDS011;10528;52.124;5.196;2024-03-17T11:20:36;8.43;;;6.60;;
20734;SDS011;10528;52.124;5.196;2024-03-17T11:23:07;9.68;;;6.63;;
20734;SDS011;10528;52.124;5.196;2024-03-17T11:28:00;8.02;;;6.50;;
20734;SDS011;10528;52.124;5.196;2024-03-17T11:46:55;11.52;;;7.28;;
20734;SDS011;10528;52.124;5.196;2024-03-17T11:49:41;10.73;;;8.02;;
20734;SDS011;10528;52.124;5.196;2024-03-17T11:52:09;11.15;;;7.93;;
20734;SDS011;10528;52.124;5.196;2024-03-17T11:54:41;12.70;;;8.45;;
20734;SDS011;10528;52.124;5.196;2024-03-17T11:57:13;10.40;;;8.18;;
20734;SDS011;10528;52.124;5.196;2024-03-17T11:59:50;10.50;;;7.90;;
20734;SDS011;10528;52.124;5.196;2024-03-17T12:04:57;9.80;;;7.32;;
20734;SDS011;10528;52.124;5.196;2024-03-17T12:07:25;10.73;;;7.43;;
20734;SDS011;10528;52.124;5.196;2024-03-17T12:09:53;8.90;;;7.75;;
20734;SDS011;10528;52.124;5.196;2024-03-17T12:12:21;10.68;;;7.65;;
20734;SDS011;10528;52.124;5.196;2024-03-17T12:15:00;10.35;;;8.10;;
20734;SDS011;10528;52.124;5.196;2024-03-17T12:17:29;10.65;;;7.90;;
20734;SDS011;10528;52.124;5.196;2024-03-17T12:19:55;11.18;;;8.00;;
20734;SDS011;10528;52.124;5.196;2024-03-17T12:22:22;14.05;;;7.45;;
20734;SDS011;10528;52.124;5.196;2024-03-17T12:24:58;10.57;;;7.50;;
20734;SDS011;10528;52.124;5.196;2024-03-17T12:27:26;9.90;;;7.40;;
20734;SDS011;10528;52.124;5.196;2024-03-17T12:29:53;11.00;;;7.53;;
20734;SDS011;10528;52.124;5.196;2024-03-17T12:32:21;9.50;;;7.65;;
20734;SDS011;10528;52.124;5.196;2024-03-17T12:34:54;9.90;;;7.47;;
20734;SDS011;10528;52.124;5.196;2024-03-17T12:37:25;10.35;;;7.75;;
20734;SDS011;10528;52.124;5.196;2024-03-17T12:39:59;13.10;;;8.18;;
20734;SDS011;10528;52.124;5.196;2024-03-17T12:42:26;10.95;;;8.05;;
20734;SDS011;10528;52.124;5.196;2024-03-17T12:44:57;11.30;;;7.68;;
20734;SDS011;10528;52.124;5.196;2024-03-17T12:47:30;12.15;;;8.60;;
20734;SDS011;10528;52.124;5.196;2024-03-17T12:49:57;11.88;;;8.02;;
20734;SDS011;10528;52.124;5.196;2024-03-17T12:52:26;9.75;;;7.78;;
20734;SDS011;10528;52.124;5.196;2024-03-17T12:55:00;11.35;;;8.43;;
20734;SDS011;10528;52.124;5.196;2024-03-17T12:57:51;11.80;;;8.45;;
20734;SDS011;10528;52.124;5.196;2024-03-17T13:00:45;10.20;;;8.20;;
20734;SDS011;10528;52.124;5.196;2024-03-17T13:03:23;13.02;;;9.23;;
20734;SDS011;10528;52.124;5.196;2024-03-17T13:05:54;10.38;;;8.18;;
20734;SDS011;10528;52.124;5.196;2024-03-17T13:08:20;13.30;;;8.07;;
20734;SDS011;10528;52.124;5.196;2024-03-17T13:10:46;12.38;;;8.35;;
20734;SDS011;10528;52.124;5.196;2024-03-17T13:13:12;12.13;;;8.48;;
20734;SDS011;10528;52.124;5.196;2024-03-17T13:15:42;12.77;;;8.60;;
20734;SDS011;10528;52.124;5.196;2024-03-17T13:18:09;10.82;;;8.48;;
20734;SDS011;10528;52.124;5.196;2024-03-17T13:20:43;12.82;;;8.88;;
20734;SDS011;10528;52.124;5.196;2024-03-17T13:23:10;10.88;;;8.38;;
20734;SDS011;10528;52.124;5.196;2024-03-17T13:25:38;10.88;;;8.40;;
20734;SDS011;10528;52.124;5.196;2024-03-17T13:28:04;11.18;;;7.93;;
20734;SDS011;10528;52.124;5.196;2024-03-17T13:30:32;11.45;;;8.32;;
20734;SDS011;10528;52.124;5.196;2024-03-17T13:33:01;10.57;;;8.77;;
20734;SDS011;10528;52.124;5.196;2024-03-17T13:35:34;12.20;;;8.60;;
20734;SDS011;10528;52.124;5.196;2024-03-17T13:38:08;11.52;;;7.60;;
20734;SDS011;10528;52.124;5.196;2024-03-17T13:40:36;15.38;;;9.07;;
20734;SDS011;10528;52.124;5.196;2024-03-17T13:43:04;11.82;;;8.57;;
20734;SDS011;10528;52.124;5.196;2024-03-17T13:45:40;12.60;;;8.60;;
20734;SDS011;10528;52.124;5.196;2024-03-17T13:48:12;13.45;;;8.48;;
20734;SDS011;10528;52.124;5.196;2024-03-17T13:50:39;12.40;;;8.75;;
20734;SDS011;10528;52.124;5.196;2024-03-17T13:53:09;12.73;;;9.27;;
20734;SDS011;10528;52.124;5.196;2024-03-17T13:55:36;11.02;;;8.18;;
20734;SDS011;10528;52.124;5.196;2024-03-17T13:58:03;11.65;;;8.80;;
20734;SDS011;10528;52.124;5.196;2024-03-17T14:00:30;11.57;;;8.35;;
20734;SDS011;10528;52.124;5.196;2024-03-17T14:02:57;10.73;;;8.20;;
20734;SDS011;10528;52.124;5.196;2024-03-17T14:05:24;9.95;;;8.20;;
20734;SDS011;10528;52.124;5.196;2024-03-17T14:07:52;10.57;;;8.10;;
20734;SDS011;10528;52.124;5.196;2024-03-17T14:10:23;9.55;;;7.28;;
20734;SDS011;10528;52.124;5.196;2024-03-17T14:12:51;10.02;;;7.57;;
20734;SDS011;10528;52.124;5.196;2024-03-17T14:15:18;10.43;;;7.78;;
20734;SDS011;10528;52.124;5.196;2024-03-17T14:17:46;9.48;;;7.80;;
20734;SDS011;10528;52.124;5.196;2024-03-17T14:20:14;11.65;;;8.43;;
20734;SDS011;10528;52.124;5.196;2024-03-17T14:22:43;11.63;;;8.35;;
20734;SDS011;10528;52.124;5.196;2024-03-17T14:25:18;11.73;;;8.30;;
20734;SDS011;10528;52.124;5.196;2024-03-17T14:27:45;10.75;;;7.35;;
20734;SDS011;10528;52.124;5.196;2024-03-17T14:30:15;10.02;;;8.00;;
20734;SDS011;10528;52.124;5.196;2024-03-17T14:32:44;11.18;;;7.13;;
20734;SDS011;10528;52.124;5.196;2024-03-17T14:35:12;11.75;;;7.95;;
20734;SDS011;10528;52.124;5.196;2024-03-17T14:37:41;10.90;;;8.02;;
20734;SDS011;10528;52.124;5.196;2024-03-17T14:40:13;11.30;;;8.02;;
20734;SDS011;10528;52.124;5.196;2024-03-17T14:42:46;10.02;;;7.57;;
20734;SDS011;10528;52.124;5.196;2024-03-17T14:45:13;10.27;;;7.05;;
20734;SDS011;10528;52.124;5.196;2024-03-17T14:47:40;9.63;;;7.85;;
20734;SDS011;10528;52.124;5.196;2024-03-17T14:50:06;10.48;;;7.10;;
20734;SDS011;10528;52.124;5.196;2024-03-17T14:52:33;10.80;;;7.65;;
20734;SDS011;10528;52.124;5.196;2024-03-17T14:55:00;10.18;;;7.40;;
20734;SDS011;10528;52.124;5.196;2024-03-17T14:57:26;11.30;;;7.88;;
20734;SDS011;10528;52.124;5.196;2024-03-17T14:59:52;10.43;;;7.57;;
20734;SDS011;10528;52.124;5.196;2024-03-17T15:02:18;10.27;;;7.68;;
20734;SDS011;10528;52.124;5.196;2024-03-17T15:04:43;11.30;;;7.32;;
20734;SDS011;10528;52.124;5.196;2024-03-17T15:07:10;9.40;;;6.50;;
20734;SDS011;10528;52.124;5.196;2024-03-17T15:09:36;9.85;;;7.38;;
20734;SDS011;10528;52.124;5.196;2024-03-17T15:12:02;9.25;;;6.97;;
20734;SDS011;10528;52.124;5.196;2024-03-17T15:14:29;10.00;;;7.22;;
20734;SDS011;10528;52.124;5.196;2024-03-17T15:16:56;12.40;;;8.18;;